sensor_id;sensor_type;location;lat;lon;timestamp;pressure;altitude;pressure_sealevel;temperature;humidity
8069;BME280;4077;43.702;24.896;2024-02-23T00:01:36;51441.41;;;-145.38;100.00
8069;BME280;4077;43.702;24.896;2024-02-23T00:04:01;51470.69;;;-145.38;100.00
8069;BME280;4077;43.702;24.896;2024-02-23T00:06:28;51468.72;;;-145.38;100.00
8069;BME280;4077;43.702;24.896;2024-02-23T00:08:54;51447.25;;;-145.38;100.00
8069;BME280;4077;43.702;24.896;2024-02-23T00:11:20;51453.09;;;-145.38;100.00
8069;BME280;4077;43.702;24.896;2024-02-23T00:13:46;51449.22;;;-145.38;100.00
8069;BME280;4077;43.702;24.896;2024-02-23T00:16:11;51468.72;;;-145.38;100.00
8069;BME280;4077;43.702;24.896;2024-02-23T00:18:37;51480.44;;;-145.38;100.00
8069;BME280;4077;43.702;24.896;2024-02-23T00:21:03;51445.31;;;-145.38;100.00
8069;BME280;4077;43.702;24.896;2024-02-23T00:23:29;51439.44;;;-145.38;100.00
8069;BME280;4077;43.702;24.896;2024-02-23T00:25:54;51443.34;;;-145.38;100.00
8069;BME280;4077;43.702;24.896;2024-02-23T00:28:20;51449.22;;;-145.38;100.00
8069;BME280;4077;43.702;24.896;2024-02-23T00:30:45;51445.31;;;-145.38;100.00
8069;BME280;4077;43.702;24.896;2024-02-23T00:33:11;51451.16;;;-145.38;100.00
8069;BME280;4077;43.702;24.896;2024-02-23T00:35:36;51439.44;;;-145.38;100.00
8069;BME280;4077;43.702;24.896;2024-02-23T00:38:01;51445.31;;;-145.38;100.00
8069;BME280;4077;43.702;24.896;2024-02-23T00:40:27;51447.25;;;-145.38;100.00
8069;BME280;4077;43.702;24.896;2024-02-23T00:42:52;51431.63;;;-145.38;100.00
8069;BME280;4077;43.702;24.896;2024-02-23T00:45:18;51386.75;;;-145.38;100.00
8069;BME280;4077;43.702;24.896;2024-02-23T00:47:43;51451.16;;;-145.38;100.00
8069;BME280;4077;43.702;24.896;2024-02-23T00:50:09;51431.63;;;-145.38;100.00
8069;BME280;4077;43.702;24.896;2024-02-23T00:52:35;51423.81;;;-145.38;100.00
8069;BME280;4077;43.702;24.896;2024-02-23T00:55:01;51447.25;;;-145.38;100.00
8069;BME280;4077;43.702;24.896;2024-02-23T00:57:26;51466.78;;;-145.38;100.00
8069;BME280;4077;43.702;24.896;2024-02-23T00:59:58;51474.59;;;-145.38;100.00
8069;BME280;4077;43.702;24.896;2024-02-23T01:02:23;51462.88;;;-145.38;100.00
8069;BME280;4077;43.702;24.896;2024-02-23T01:04:49;51449.22;;;-145.38;100.00
8069;BME280;4077;43.702;24.896;2024-02-23T01:07:14;51462.88;;;-145.38;100.00
8069;BME280;4077;43.702;24.896;2024-02-23T01:09:40;51478.50;;;-145.38;100.00
8069;BME280;4077;43.702;24.896;2024-02-23T01:12:05;51453.09;;;-145.38;100.00
8069;BME280;4077;43.702;24.896;2024-02-23T01:14:31;51494.09;;;-145.38;100.00
8069;BME280;4077;43.702;24.896;2024-02-23T01:16:56;51478.50;;;-145.38;100.00
8069;BME280;4077;43.702;24.896;2024-02-23T01:19:22;51486.28;;;-145.38;100.00
8069;BME280;4077;43.702;24.896;2024-02-23T01:21:48;51443.34;;;-145.38;100.00
8069;BME280;4077;43.702;24.896;2024-02-23T01:24:17;51455.06;;;-145.38;100.00
8069;BME280;4077;43.702;24.896;2024-02-23T01:26:42;51455.06;;;-145.38;100.00
8069;BME280;4077;43.702;24.896;2024-02-23T01:29:08;51466.78;;;-145.38;100.00
8069;BME280;4077;43.702;24.896;2024-02-23T01:31:33;51460.91;;;-145.38;100.00
8069;BME280;4077;43.702;24.896;2024-02-23T01:33:58;51423.81;;;-145.38;100.00
8069;BME280;4077;43.702;24.896;2024-02-23T01:36:24;51468.72;;;-145.38;100.00
8069;BME280;4077;43.702;24.896;2024-02-23T01:38:49;51498.00;;;-145.38;100.00
8069;BME280;4077;43.702;24.896;2024-02-23T01:41:15;51439.44;;;-145.38;100.00
8069;BME280;4077;43.702;24.896;2024-02-23T01:43:40;51460.91;;;-145.38;100.00
8069;BME280;4077;43.702;24.896;2024-02-23T01:46:06;51458.97;;;-145.38;100.00
8069;BME280;4077;43.702;24.896;2024-02-23T01:48:32;51431.63;;;-145.38;100.00
8069;BME280;4077;43.702;24.896;2024-02-23T01:50:57;51490.19;;;-145.38;100.00
8069;BME280;4077;43.702;24.896;2024-02-23T01:53:24;51435.53;;;-145.38;100.00
8069;BME280;4077;43.702;24.896;2024-02-23T01:55:51;51433.59;;;-145.38;100.00
8069;BME280;4077;43.702;24.896;2024-02-23T01:58:18;51488.25;;;-145.38;100.00
8069;BME280;4077;43.702;24.896;2024-02-23T02:00:45;51421.88;;;-145.38;100.00
8069;BME280;4077;43.702;24.896;2024-02-23T02:03:10;51443.34;;;-145.38;100.00
8069;BME280;4077;43.702;24.896;2024-02-23T02:05:36;51455.06;;;-145.38;100.00
8069;BME280;4077;43.702;24.896;2024-02-23T02:08:03;51427.72;;;-145.38;100.00
8069;BME280;4077;43.702;24.896;2024-02-23T02:10:29;51447.25;;;-145.38;100.00
8069;BME280;4077;43.702;24.896;2024-02-23T02:12:54;51458.97;;;-145.38;100.00
8069;BME280;4077;43.702;24.896;2024-02-23T02:15:20;51455.06;;;-145.38;100.00
8069;BME280;4077;43.702;24.896;2024-02-23T02:17:47;51423.81;;;-145.38;100.00
8069;BME280;4077;43.702;24.896;2024-02-23T02:20:13;51458.97;;;-145.38;100.00
8069;BME280;4077;43.702;24.896;2024-02-23T02:22:39;51417.97;;;-145.38;100.00
8069;BME280;4077;43.702;24.896;2024-02-23T02:25:05;51433.59;;;-145.38;100.00
8069;BME280;4077;43.702;24.896;2024-02-23T02:27:31;51464.81;;;-145.38;100.00
8069;BME280;4077;43.702;24.896;2024-02-23T02:29:56;51441.41;;;-145.38;100.00
8069;BME280;4077;43.702;24.896;2024-02-23T02:32:22;51431.63;;;-145.38;100.00
8069;BME280;4077;43.702;24.896;2024-02-23T02:34:48;51431.63;;;-145.38;100.00
8069;BME280;4077;43.702;24.896;2024-02-23T02:37:13;51439.44;;;-145.38;100.00
8069;BME280;4077;43.702;24.896;2024-02-23T02:39:39;51451.16;;;-145.38;100.00
8069;BME280;4077;43.702;24.896;2024-02-23T02:42:05;51429.69;;;-145.38;100.00
8069;BME280;4077;43.702;24.896;2024-02-23T02:44:30;51419.94;;;-145.38;100.00
8069;BME280;4077;43.702;24.896;2024-02-23T02:46:58;51453.09;;;-145.38;100.00
8069;BME280;4077;43.702;24.896;2024-02-23T02:49:24;51447.25;;;-145.38;100.00
8069;BME280;4077;43.702;24.896;2024-02-23T02:51:50;51466.78;;;-145.38;100.00
8069;BME280;4077;43.702;24.896;2024-02-23T02:54:16;51464.81;;;-145.38;100.00
8069;BME280;4077;43.702;24.896;2024-02-23T02:56:46;51453.09;;;-145.38;100.00
8069;BME280;4077;43.702;24.896;2024-02-23T02:59:12;51449.22;;;-145.38;100.00
8069;BME280;4077;43.702;24.896;2024-02-23T03:01:39;51435.53;;;-145.38;100.00
8069;BME280;4077;43.702;24.896;2024-02-23T03:04:04;51478.50;;;-145.38;100.00
8069;BME280;4077;43.702;24.896;2024-02-23T03:06:30;51447.25;;;-145.38;100.00
8069;BME280;4077;43.702;24.896;2024-02-23T03:08:55;51462.88;;;-145.38;100.00
8069;BME280;4077;43.702;24.896;2024-02-23T03:11:21;51443.34;;;-145.38;100.00
8069;BME280;4077;43.702;24.896;2024-02-23T03:13:46;51478.50;;;-145.38;100.00
8069;BME280;4077;43.702;24.896;2024-02-23T03:16:18;51439.44;;;-145.38;100.00
8069;BME280;4077;43.702;24.896;2024-02-23T03:18:44;51494.09;;;-145.38;100.00
8069;BME280;4077;43.702;24.896;2024-02-23T03:21:09;51417.97;;;-145.38;100.00
8069;BME280;4077;43.702;24.896;2024-02-23T03:23:35;51445.31;;;-145.38;100.00
8069;BME280;4077;43.702;24.896;2024-02-23T03:26:01;51462.88;;;-145.38;100.00
8069;BME280;4077;43.702;24.896;2024-02-23T03:28:27;51431.63;;;-145.38;100.00
8069;BME280;4077;43.702;24.896;2024-02-23T03:30:53;51501.91;;;-145.38;100.00
8069;BME280;4077;43.702;24.896;2024-02-23T03:33:18;51439.44;;;-145.38;100.00
8069;BME280;4077;43.702;24.896;2024-02-23T03:35:44;51419.94;;;-145.38;100.00
8069;BME280;4077;43.702;24.896;2024-02-23T03:38:09;51445.31;;;-145.38;100.00
8069;BME280;4077;43.702;24.896;2024-02-23T03:40:35;51431.63;;;-145.38;100.00
8069;BME280;4077;43.702;24.896;2024-02-23T03:43:01;51460.91;;;-145.38;100.00
8069;BME280;4077;43.702;24.896;2024-02-23T03:45:27;51443.34;;;-145.38;100.00
8069;BME280;4077;43.702;24.896;2024-02-23T03:47:53;51439.44;;;-145.38;100.00
8069;BME280;4077;43.702;24.896;2024-02-23T03:50:18;51451.16;;;-145.38;100.00
8069;BME280;4077;43.702;24.896;2024-02-23T03:52:43;51439.44;;;-145.38;100.00
8069;BME280;4077;43.702;24.896;2024-02-23T03:55:09;51433.59;;;-145.38;100.00
8069;BME280;4077;43.702;24.896;2024-02-23T03:57:34;51455.06;;;-145.38;100.00
8069;BME280;4077;43.702;24.896;2024-02-23T04:00:00;51425.78;;;-145.38;100.00
8069;BME280;4077;43.702;24.896;2024-02-23T04:02:25;51455.06;;;-145.38;100.00
8069;BME280;4077;43.702;24.896;2024-02-23T04:04:51;51433.59;;;-145.38;100.00
8069;BME280;4077;43.702;24.896;2024-02-23T04:07:16;51441.41;;;-145.38;100.00
8069;BME280;4077;43.702;24.896;2024-02-23T04:09:42;51451.16;;;-145.38;100.00
8069;BME280;4077;43.702;24.896;2024-02-23T04:12:07;51458.97;;;-145.38;100.00
8069;BME280;4077;43.702;24.896;2024-02-23T04:14:33;51455.06;;;-145.38;100.00
8069;BME280;4077;43.702;24.896;2024-02-23T04:17:04;51449.22;;;-145.38;100.00
8069;BME280;4077;43.702;24.896;2024-02-23T04:19:30;51462.88;;;-145.38;100.00
8069;BME280;4077;43.702;24.896;2024-02-23T04:21:55;51457.00;;;-145.38;100.00
8069;BME280;4077;43.702;24.896;2024-02-23T04:24:21;51445.31;;;-145.38;100.00
8069;BME280;4077;43.702;24.896;2024-02-23T04:26:46;51419.94;;;-145.38;100.00
8069;BME280;4077;43.702;24.896;2024-02-23T04:29:12;51447.25;;;-145.38;100.00
8069;BME280;4077;43.702;24.896;2024-02-23T04:31:38;51484.34;;;-145.38;100.00
8069;BME280;4077;43.702;24.896;2024-02-23T04:34:03;51412.13;;;-145.38;100.00
8069;BME280;4077;43.702;24.896;2024-02-23T04:36:29;51443.34;;;-145.38;100.00
8069;BME280;4077;43.702;24.896;2024-02-23T04:38:54;51470.69;;;-145.38;100.00
8069;BME280;4077;43.702;24.896;2024-02-23T04:41:20;51427.72;;;-145.38;100.00
8069;BME280;4077;43.702;24.896;2024-02-23T04:43:49;51427.72;;;-145.38;100.00
8069;BME280;4077;43.702;24.896;2024-02-23T04:46:14;51439.44;;;-145.38;100.00
8069;BME280;4077;43.702;24.896;2024-02-23T04:48:40;51451.16;;;-145.38;100.00
8069;BME280;4077;43.702;24.896;2024-02-23T04:51:07;51398.44;;;-145.38;100.00
8069;BME280;4077;43.702;24.896;2024-02-23T04:53:38;51423.81;;;-145.38;100.00
8069;BME280;4077;43.702;24.896;2024-02-23T04:56:07;51408.22;;;-145.38;100.00
8069;BME280;4077;43.702;24.896;2024-02-23T04:58:32;51443.34;;;-145.38;100.00
8069;BME280;4077;43.702;24.896;2024-02-23T05:00:58;51466.78;;;-145.38;100.00
8069;BME280;4077;43.702;24.896;2024-02-23T05:03:23;51453.09;;;-145.38;100.00
8069;BME280;4077;43.702;24.896;2024-02-23T05:05:48;51439.44;;;-145.38;100.00
8069;BME280;4077;43.702;24.896;2024-02-23T05:08:21;51416.03;;;-145.38;100.00
8069;BME280;4077;43.702;24.896;2024-02-23T05:10:46;51431.63;;;-145.38;100.00
8069;BME280;4077;43.702;24.896;2024-02-23T05:13:13;51427.72;;;-145.38;100.00
8069;BME280;4077;43.702;24.896;2024-02-23T05:15:38;51435.53;;;-145.38;100.00
8069;BME280;4077;43.702;24.896;2024-02-23T05:18:04;51425.78;;;-145.38;100.00
8069;BME280;4077;43.702;24.896;2024-02-23T05:20:30;51435.53;;;-145.38;100.00
8069;BME280;4077;43.702;24.896;2024-02-23T05:22:55;51412.13;;;-145.38;100.00
8069;BME280;4077;43.702;24.896;2024-02-23T05:25:21;51427.72;;;-145.38;100.00
8069;BME280;4077;43.702;24.896;2024-02-23T05:27:46;51423.81;;;-145.38;100.00
8069;BME280;4077;43.702;24.896;2024-02-23T05:30:12;51435.53;;;-145.38;100.00
8069;BME280;4077;43.702;24.896;2024-02-23T05:32:38;51380.88;;;-145.38;100.00
8069;BME280;4077;43.702;24.896;2024-02-23T05:35:04;51435.53;;;-145.38;100.00
8069;BME280;4077;43.702;24.896;2024-02-23T05:37:29;51398.44;;;-145.38;100.00
8069;BME280;4077;43.702;24.896;2024-02-23T05:39:55;51431.63;;;-145.38;100.00
8069;BME280;4077;43.702;24.896;2024-02-23T05:42:20;51447.25;;;-145.38;100.00
8069;BME280;4077;43.702;24.896;2024-02-23T05:44:46;51455.06;;;-145.38;100.00
8069;BME280;4077;43.702;24.896;2024-02-23T05:47:12;51447.25;;;-145.38;100.00
8069;BME280;4077;43.702;24.896;2024-02-23T05:49:39;51433.59;;;-145.38;100.00
8069;BME280;4077;43.702;24.896;2024-02-23T05:52:04;51427.72;;;-145.38;100.00
8069;BME280;4077;43.702;24.896;2024-02-23T05:54:30;51435.53;;;-145.38;100.00
8069;BME280;4077;43.702;24.896;2024-02-23T05:56:55;51396.50;;;-145.38;100.00
8069;BME280;4077;43.702;24.896;2024-02-23T05:59:20;51408.22;;;-145.38;100.00
8069;BME280;4077;43.702;24.896;2024-02-23T06:01:46;51388.69;;;-145.38;100.00
8069;BME280;4077;43.702;24.896;2024-02-23T06:04:11;51437.50;;;-145.38;100.00
8069;BME280;4077;43.702;24.896;2024-02-23T06:06:37;51406.25;;;-145.38;100.00
8069;BME280;4077;43.702;24.896;2024-02-23T06:09:02;51447.25;;;-145.38;100.00
8069;BME280;4077;43.702;24.896;2024-02-23T06:11:29;51423.81;;;-145.38;100.00
8069;BME280;4077;43.702;24.896;2024-02-23T06:13:54;51443.34;;;-145.38;100.00
8069;BME280;4077;43.702;24.896;2024-02-23T06:16:19;51443.34;;;-145.38;100.00
8069;BME280;4077;43.702;24.896;2024-02-23T06:18:45;51443.34;;;-145.38;100.00
8069;BME280;4077;43.702;24.896;2024-02-23T06:21:14;51439.44;;;-145.38;100.00
8069;BME280;4077;43.702;24.896;2024-02-23T06:23:41;51468.72;;;-145.38;100.00
8069;BME280;4077;43.702;24.896;2024-02-23T06:26:07;51455.06;;;-145.38;100.00
8069;BME280;4077;43.702;24.896;2024-02-23T06:28:32;51439.44;;;-145.38;100.00
8069;BME280;4077;43.702;24.896;2024-02-23T06:30:58;51455.06;;;-145.38;100.00
8069;BME280;4077;43.702;24.896;2024-02-23T06:33:23;51361.34;;;-145.38;100.00
8069;BME280;4077;43.702;24.896;2024-02-23T06:35:50;51453.09;;;-145.38;100.00
8069;BME280;4077;43.702;24.896;2024-02-23T06:38:15;51435.53;;;-145.38;100.00
8069;BME280;4077;43.702;24.896;2024-02-23T06:40:41;51380.88;;;-145.38;100.00
8069;BME280;4077;43.702;24.896;2024-02-23T06:43:07;51427.72;;;-145.38;100.00
8069;BME280;4077;43.702;24.896;2024-02-23T06:45:32;51445.31;;;-145.38;100.00
8069;BME280;4077;43.702;24.896;2024-02-23T06:47:57;51427.72;;;-145.38;100.00
8069;BME280;4077;43.702;24.896;2024-02-23T06:50:23;51416.03;;;-145.38;100.00
8069;BME280;4077;43.702;24.896;2024-02-23T06:52:48;51398.44;;;-145.38;100.00
8069;BME280;4077;43.702;24.896;2024-02-23T06:55:15;51394.53;;;-145.38;100.00
8069;BME280;4077;43.702;24.896;2024-02-23T06:57:41;51341.84;;;-145.38;97.88
8069;BME280;4077;43.702;24.896;2024-02-23T07:00:07;51365.25;;;-145.38;76.82
8069;BME280;4077;43.702;24.896;2024-02-23T07:02:33;51298.91;;;-145.38;58.16
8069;BME280;4077;43.702;24.896;2024-02-23T07:05:02;51259.84;;;-145.38;46.84
8069;BME280;4077;43.702;24.896;2024-02-23T07:07:29;51203.25;;;-145.38;40.75
8069;BME280;4077;43.702;24.896;2024-02-23T07:09:56;51226.66;;;-145.38;40.10
8069;BME280;4077;43.702;24.896;2024-02-23T07:12:21;51224.72;;;-145.38;40.22
8069;BME280;4077;43.702;24.896;2024-02-23T07:14:47;51220.81;;;-145.38;38.89
8069;BME280;4077;43.702;24.896;2024-02-23T07:17:12;51209.09;;;-145.38;38.67
8069;BME280;4077;43.702;24.896;2024-02-23T07:19:37;51209.09;;;-145.38;38.36
8069;BME280;4077;43.702;24.896;2024-02-23T07:22:03;51197.38;;;-145.38;38.31
8069;BME280;4077;43.702;24.896;2024-02-23T07:24:28;51248.13;;;-145.38;37.57
8069;BME280;4077;43.702;24.896;2024-02-23T07:26:54;51232.53;;;-145.38;37.63
8069;BME280;4077;43.702;24.896;2024-02-23T07:29:19;51177.88;;;-145.38;37.74
8069;BME280;4077;43.702;24.896;2024-02-23T07:31:45;51199.34;;;-145.38;38.08
8069;BME280;4077;43.702;24.896;2024-02-23T07:34:10;51203.25;;;-145.38;38.57
8069;BME280;4077;43.702;24.896;2024-02-23T07:36:36;51218.84;;;-145.38;38.30
8069;BME280;4077;43.702;24.896;2024-02-23T07:39:01;51244.22;;;-145.38;39.47
8069;BME280;4077;43.702;24.896;2024-02-23T07:41:27;51220.81;;;-145.38;40.71
8069;BME280;4077;43.702;24.896;2024-02-23T07:43:53;51214.97;;;-145.38;41.97
8069;BME280;4077;43.702;24.896;2024-02-23T07:46:18;51240.34;;;-145.38;42.10
8069;BME280;4077;43.702;24.896;2024-02-23T07:48:45;51273.50;;;-145.38;42.58
8069;BME280;4077;43.702;24.896;2024-02-23T07:51:13;51279.38;;;-145.38;41.71
8069;BME280;4077;43.702;24.896;2024-02-23T07:53:39;51298.91;;;-145.38;41.15
8069;BME280;4077;43.702;24.896;2024-02-23T07:56:07;51283.28;;;-145.38;40.80
8069;BME280;4077;43.702;24.896;2024-02-23T07:58:33;51205.19;;;-145.38;40.43
8069;BME280;4077;43.702;24.896;2024-02-23T08:00:58;51216.91;;;-145.38;39.24
8069;BME280;4077;43.702;24.896;2024-02-23T08:03:23;51213.00;;;-145.38;39.21
8069;BME280;4077;43.702;24.896;2024-02-23T08:05:49;51211.06;;;-145.38;38.31
8069;BME280;4077;43.702;24.896;2024-02-23T08:08:14;51216.91;;;-145.38;37.99
8069;BME280;4077;43.702;24.896;2024-02-23T08:10:40;51220.81;;;-145.38;38.32
8069;BME280;4077;43.702;24.896;2024-02-23T08:13:05;51259.84;;;-145.38;39.10
8069;BME280;4077;43.702;24.896;2024-02-23T08:15:31;51250.09;;;-145.38;39.66
8069;BME280;4077;43.702;24.896;2024-02-23T08:17:56;51281.31;;;-145.38;39.78
8069;BME280;4077;43.702;24.896;2024-02-23T08:20:22;51277.41;;;-145.38;40.28
8069;BME280;4077;43.702;24.896;2024-02-23T08:22:48;51263.75;;;-145.38;40.86
8069;BME280;4077;43.702;24.896;2024-02-23T08:25:13;51248.13;;;-145.38;41.10
8069;BME280;4077;43.702;24.896;2024-02-23T08:27:40;51265.72;;;-145.38;40.74
8069;BME280;4077;43.702;24.896;2024-02-23T08:30:06;51298.91;;;-145.38;40.37
8069;BME280;4077;43.702;24.896;2024-02-23T08:32:32;51320.38;;;-145.38;40.56
8069;BME280;4077;43.702;24.896;2024-02-23T08:34:57;51289.13;;;-145.38;40.06
8069;BME280;4077;43.702;24.896;2024-02-23T08:37:28;51255.94;;;-145.38;39.36
8069;BME280;4077;43.702;24.896;2024-02-23T08:39:53;51337.94;;;-145.38;38.63
8069;BME280;4077;43.702;24.896;2024-02-23T08:42:19;51271.56;;;-145.38;38.61
8069;BME280;4077;43.702;24.896;2024-02-23T08:44:45;51267.66;;;-145.38;38.50
8069;BME280;4077;43.702;24.896;2024-02-23T08:47:10;51267.66;;;-145.38;38.75
8069;BME280;4077;43.702;24.896;2024-02-23T08:49:35;51257.91;;;-145.38;38.18
8069;BME280;4077;43.702;24.896;2024-02-23T08:52:01;51224.72;;;-145.38;38.52
8069;BME280;4077;43.702;24.896;2024-02-23T08:54:27;51283.28;;;-145.38;38.75
8069;BME280;4077;43.702;24.896;2024-02-23T08:56:53;51234.47;;;-145.38;38.34
8069;BME280;4077;43.702;24.896;2024-02-23T08:59:47;51295.00;;;-145.38;38.16
8069;BME280;4077;43.702;24.896;2024-02-23T09:02:12;51275.47;;;-145.38;37.68
8069;BME280;4077;43.702;24.896;2024-02-23T09:04:38;51271.56;;;-145.38;37.49
8069;BME280;4077;43.702;24.896;2024-02-23T09:07:04;51283.28;;;-145.38;37.71
8069;BME280;4077;43.702;24.896;2024-02-23T09:09:29;51275.47;;;-145.38;37.82
8069;BME280;4077;43.702;24.896;2024-02-23T09:11:56;51259.84;;;-145.38;37.52
8069;BME280;4077;43.702;24.896;2024-02-23T09:14:22;51295.00;;;-145.38;37.68
8069;BME280;4077;43.702;24.896;2024-02-23T09:16:47;51295.00;;;-145.38;37.59
8069;BME280;4077;43.702;24.896;2024-02-23T09:19:16;51205.19;;;-145.38;37.57
8069;BME280;4077;43.702;24.896;2024-02-23T09:21:41;51259.84;;;-145.38;36.92
8069;BME280;4077;43.702;24.896;2024-02-23T09:24:07;51244.22;;;-145.38;36.81
8069;BME280;4077;43.702;24.896;2024-02-23T09:26:32;51244.22;;;-145.38;37.01
8069;BME280;4077;43.702;24.896;2024-02-23T09:28:58;51248.13;;;-145.38;37.00
8069;BME280;4077;43.702;24.896;2024-02-23T09:31:23;51230.56;;;-145.38;36.71
8069;BME280;4077;43.702;24.896;2024-02-23T09:33:49;51220.81;;;-145.38;36.02
8069;BME280;4077;43.702;24.896;2024-02-23T09:36:16;51244.22;;;-145.38;35.58
8069;BME280;4077;43.702;24.896;2024-02-23T09:38:42;51177.88;;;-145.38;35.75
8069;BME280;4077;43.702;24.896;2024-02-23T09:41:22;51175.91;;;-145.38;34.36
8069;BME280;4077;43.702;24.896;2024-02-23T09:43:48;51205.19;;;-145.38;34.11
8069;BME280;4077;43.702;24.896;2024-02-23T09:46:18;51181.78;;;-145.38;34.10
8069;BME280;4077;43.702;24.896;2024-02-23T09:48:44;51181.78;;;-145.38;34.21
8069;BME280;4077;43.702;24.896;2024-02-23T09:51:11;51240.34;;;-145.38;34.62
8069;BME280;4077;43.702;24.896;2024-02-23T09:53:37;51162.25;;;-145.38;35.41
8069;BME280;4077;43.702;24.896;2024-02-23T09:56:04;51240.34;;;-145.38;36.23
8069;BME280;4077;43.702;24.896;2024-02-23T09:58:33;51205.19;;;-145.38;36.36
8069;BME280;4077;43.702;24.896;2024-02-23T10:01:01;51209.09;;;-145.38;36.96
8069;BME280;4077;43.702;24.896;2024-02-23T10:03:27;51254.00;;;-145.38;36.80
8069;BME280;4077;43.702;24.896;2024-02-23T10:05:57;51228.63;;;-145.38;36.75
8069;BME280;4077;43.702;24.896;2024-02-23T10:08:23;51238.38;;;-145.38;36.73
8069;BME280;4077;43.702;24.896;2024-02-23T10:10:48;51236.44;;;-145.38;36.52
8069;BME280;4077;43.702;24.896;2024-02-23T10:13:20;51263.75;;;-145.38;36.95
8069;BME280;4077;43.702;24.896;2024-02-23T10:15:46;51244.22;;;-145.38;36.90
8069;BME280;4077;43.702;24.896;2024-02-23T10:18:12;51228.63;;;-145.38;36.88
8069;BME280;4077;43.702;24.896;2024-02-23T10:20:38;51218.84;;;-145.38;36.87
8069;BME280;4077;43.702;24.896;2024-02-23T10:23:04;51230.56;;;-145.38;36.62
8069;BME280;4077;43.702;24.896;2024-02-23T10:25:32;51228.63;;;-145.38;36.71
8069;BME280;4077;43.702;24.896;2024-02-23T10:27:58;51238.38;;;-145.38;36.86
8069;BME280;4077;43.702;24.896;2024-02-23T10:30:26;51269.63;;;-145.38;36.89
8069;BME280;4077;43.702;24.896;2024-02-23T10:32:57;51226.66;;;-145.38;36.68
8069;BME280;4077;43.702;24.896;2024-02-23T10:35:24;51222.75;;;-145.38;36.41
8069;BME280;4077;43.702;24.896;2024-02-23T10:37:50;51252.03;;;-145.38;36.29
8069;BME280;4077;43.702;24.896;2024-02-23T10:40:18;51257.91;;;-145.38;36.19
8069;BME280;4077;43.702;24.896;2024-02-23T10:42:45;51242.28;;;-145.38;36.12
8069;BME280;4077;43.702;24.896;2024-02-23T10:45:17;51240.34;;;-145.38;36.25
8069;BME280;4077;43.702;24.896;2024-02-23T10:47:43;51257.91;;;-145.38;36.20
8069;BME280;4077;43.702;24.896;2024-02-23T10:50:09;51289.13;;;-145.38;36.13
8069;BME280;4077;43.702;24.896;2024-02-23T10:52:35;51263.75;;;-145.38;35.99
8069;BME280;4077;43.702;24.896;2024-02-23T10:55:03;51224.72;;;-145.38;36.05
8069;BME280;4077;43.702;24.896;2024-02-23T10:57:34;51209.09;;;-145.38;35.79
8069;BME280;4077;43.702;24.896;2024-02-23T11:00:00;51220.81;;;-145.38;36.11
8069;BME280;4077;43.702;24.896;2024-02-23T11:02:28;51220.81;;;-145.38;35.72
8069;BME280;4077;43.702;24.896;2024-02-23T11:04:57;51230.56;;;-145.38;35.72
8069;BME280;4077;43.702;24.896;2024-02-23T11:07:24;51232.53;;;-145.38;35.63
8069;BME280;4077;43.702;24.896;2024-02-23T11:10:02;51257.91;;;-145.38;35.60
8069;BME280;4077;43.702;24.896;2024-02-23T11:12:30;51259.84;;;-145.38;35.67
8069;BME280;4077;43.702;24.896;2024-02-23T11:14:59;51220.81;;;-145.38;35.52
8069;BME280;4077;43.702;24.896;2024-02-23T11:17:30;51211.06;;;-145.38;35.16
8069;BME280;4077;43.702;24.896;2024-02-23T11:19:57;51255.94;;;-145.38;35.09
8069;BME280;4077;43.702;24.896;2024-02-23T11:22:33;51213.00;;;-145.38;35.06
8069;BME280;4077;43.702;24.896;2024-02-23T11:25:04;51199.34;;;-145.38;35.75
8069;BME280;4077;43.702;24.896;2024-02-23T11:27:31;51263.75;;;-145.38;35.77
8069;BME280;4077;43.702;24.896;2024-02-23T11:30:05;51216.91;;;-145.38;35.58
8069;BME280;4077;43.702;24.896;2024-02-23T11:32:41;51240.34;;;-145.38;35.70
8069;BME280;4077;43.702;24.896;2024-02-23T11:35:10;51224.72;;;-145.38;35.18
8069;BME280;4077;43.702;24.896;2024-02-23T11:37:52;51259.84;;;-145.38;34.93
8069;BME280;4077;43.702;24.896;2024-02-23T11:40:26;51216.91;;;-145.38;35.30
8069;BME280;4077;43.702;24.896;2024-02-23T11:42:52;51240.34;;;-145.38;35.24
8069;BME280;4077;43.702;24.896;2024-02-23T11:45:19;51244.22;;;-145.38;35.50
8069;BME280;4077;43.702;24.896;2024-02-23T11:47:44;51224.72;;;-145.38;35.28
8069;BME280;4077;43.702;24.896;2024-02-23T11:50:10;51257.91;;;-145.38;35.17
8069;BME280;4077;43.702;24.896;2024-02-23T11:52:39;51255.94;;;-145.38;35.00
8069;BME280;4077;43.702;24.896;2024-02-23T11:55:05;51224.72;;;-145.38;35.12
8069;BME280;4077;43.702;24.896;2024-02-23T11:57:34;51261.81;;;-145.38;35.61
8069;BME280;4077;43.702;24.896;2024-02-23T12:00:04;51211.06;;;-145.38;35.55
8069;BME280;4077;43.702;24.896;2024-02-23T12:02:35;51273.50;;;-145.38;35.67
8069;BME280;4077;43.702;24.896;2024-02-23T12:05:00;51263.75;;;-145.38;35.20
8069;BME280;4077;43.702;24.896;2024-02-23T12:07:28;51255.94;;;-145.38;34.93
8069;BME280;4077;43.702;24.896;2024-02-23T12:09:55;51246.19;;;-145.38;35.16
8069;BME280;4077;43.702;24.896;2024-02-23T12:12:21;51265.72;;;-145.38;35.67
8069;BME280;4077;43.702;24.896;2024-02-23T12:14:47;51257.91;;;-145.38;35.99
8069;BME280;4077;43.702;24.896;2024-02-23T12:17:13;51214.97;;;-145.38;35.80
8069;BME280;4077;43.702;24.896;2024-02-23T12:19:39;51228.63;;;-145.38;36.04
8069;BME280;4077;43.702;24.896;2024-02-23T12:22:07;51283.28;;;-145.38;35.67
8069;BME280;4077;43.702;24.896;2024-02-23T12:24:34;51216.91;;;-145.38;35.60
8069;BME280;4077;43.702;24.896;2024-02-23T12:26:59;51271.56;;;-145.38;35.54
8069;BME280;4077;43.702;24.896;2024-02-23T12:29:25;51209.09;;;-145.38;35.76
8069;BME280;4077;43.702;24.896;2024-02-23T12:32:05;51263.75;;;-145.38;35.91
8069;BME280;4077;43.702;24.896;2024-02-23T12:34:30;51250.09;;;-145.38;36.09
8069;BME280;4077;43.702;24.896;2024-02-23T12:36:56;51283.28;;;-145.38;36.10
8069;BME280;4077;43.702;24.896;2024-02-23T12:39:21;51250.09;;;-145.38;35.81
8069;BME280;4077;43.702;24.896;2024-02-23T12:41:47;51242.28;;;-145.38;35.65